Time;durP1;ratioP1;P1;durP2;ratioP2;P2;SDS_P1;SDS_P2;PMS_P1;PMS_P2;Temp;Humidity;BMP_temperature;BMP_pressure;BME280_temperature;BME280_humidity;BME280_pressure;Samples;Min_cycle;Max_cycle;Signal;HPM_P1;HPM_P2
2023/06/29 00:03:58;;;;;;;6.60;2.70;;;24.70;61.30;;;;;;222510;1252;22508;-47
2023/06/29 00:09:04;;;;;;;4.90;3.00;;;24.80;63.00;;;;;;222321;1266;22586;-50
2023/06/29 00:14:09;;;;;;;5.60;3.60;;;24.80;62.80;;;;;;222328;1262;26765;-48
2023/06/29 00:19:14;;;;;;;4.20;2.70;;;24.80;62.80;;;;;;222545;1263;24212;-47
2023/06/29 00:24:19;;;;;;;3.70;2.40;;;24.70;62.70;;;;;;222477;1251;23882;-47
2023/06/29 00:29:23;;;;;;;5.90;3.00;;;24.70;63.10;;;;;;222287;1254;22511;-47
2023/06/29 00:34:28;;;;;;;3.40;2.50;;;24.70;62.70;;;;;;222695;1260;22608;-47
2023/06/29 00:39:33;;;;;;;5.70;2.60;;;24.70;62.70;;;;;;222667;1263;22753;-50
2023/06/29 00:44:37;;;;;;;4.20;2.70;;;24.70;62.70;;;;;;222527;1260;22519;-48
2023/06/29 00:49:41;;;;;;;3.80;2.50;;;24.70;62.90;;;;;;222358;1247;24225;-47
2023/06/29 00:54:46;;;;;;;4.30;2.20;;;24.60;62.50;;;;;;222404;1264;24307;-49
2023/06/29 00:59:51;;;;;;;3.10;2.30;;;24.60;62.70;;;;;;222402;1264;22510;-47
2023/06/29 01:04:57;;;;;;;4.60;2.40;;;24.60;63.00;;;;;;222313;1268;22682;-51
2023/06/29 01:10:03;;;;;;;3.20;2.20;;;24.60;62.70;;;;;;222401;1261;24238;-50
2023/06/29 01:15:11;;;;;;;2.50;2.00;;;24.60;62.90;;;;;;222172;1267;22517;-47
2023/06/29 01:20:16;;;;;;;3.00;2.20;;;24.60;62.30;;;;;;222258;1264;25332;-47
2023/06/29 01:25:20;;;;;;;4.60;2.20;;;24.60;62.90;;;;;;222558;1264;23139;-48
2023/06/29 01:30:26;;;;;;;2.80;2.00;;;24.60;62.80;;;;;;222459;1244;22524;-50
2023/06/29 01:35:32;;;;;;;3.40;2.20;;;24.60;62.60;;;;;;230339;1254;22326;-49
2023/06/29 01:40:38;;;;;;;4.60;2.10;;;24.70;62.30;;;;;;230416;1266;22164;-50
2023/06/29 01:45:43;;;;;;;6.50;2.40;;;24.80;61.30;;;;;;230058;1260;22244;-50
2023/06/29 01:50:48;;;;;;;4.90;2.20;;;24.90;61.40;;;;;;223641;1264;22527;-49
2023/06/29 01:55:53;;;;;;;4.10;1.90;;;24.80;60.90;;;;;;222475;1267;24207;-48
2023/06/29 02:00:57;;;;;;;2.80;2.20;;;24.70;61.80;;;;;;222317;1265;22686;-51
2023/06/29 02:06:01;;;;;;;3.40;2.20;;;24.60;62.00;;;;;;222577;1254;23450;-47
2023/06/29 02:11:06;;;;;;;2.10;1.80;;;24.60;62.00;;;;;;222257;1266;24294;-48
2023/06/29 02:16:10;;;;;;;2.70;1.80;;;24.50;62.40;;;;;;222260;1261;193275;-49
2023/06/29 02:21:14;;;;;;;4.40;2.50;;;24.50;62.30;;;;;;222468;1260;22842;-52
2023/06/29 02:26:19;;;;;;;2.40;1.70;;;24.50;62.10;;;;;;222608;1263;24308;-48
2023/06/29 02:31:23;;;;;;;3.80;2.00;;;24.50;62.00;;;;;;222715;1261;25321;-46
2023/06/29 02:36:27;;;;;;;3.20;1.70;;;24.50;62.10;;;;;;222432;1263;24324;-49
2023/06/29 02:41:31;;;;;;;3.80;2.00;;;24.40;61.80;;;;;;222330;1253;24193;-47
2023/06/29 02:46:36;;;;;;;2.30;1.70;;;24.40;61.90;;;;;;222243;1260;24207;-51
2023/06/29 02:51:40;;;;;;;4.10;2.10;;;24.50;61.80;;;;;;222404;1264;25581;-48
2023/06/29 02:56:45;;;;;;;3.00;1.90;;;24.40;62.10;;;;;;222605;1264;24698;-45
2023/06/29 03:01:49;;;;;;;3.80;2.20;;;24.40;61.80;;;;;;222203;1268;24358;-47
2023/06/29 03:06:54;;;;;;;2.40;1.70;;;24.50;62.00;;;;;;222475;1264;22504;-46
2023/06/29 03:11:58;;;;;;;2.60;1.90;;;24.40;62.00;;;;;;222442;1266;24247;-48
2023/06/29 03:17:02;;;;;;;2.80;1.70;;;24.40;62.00;;;;;;222400;1266;22616;-50
2023/06/29 03:22:06;;;;;;;2.10;1.60;;;24.40;62.00;;;;;;222937;1260;25310;-46
2023/06/29 03:27:11;;;;;;;4.00;2.10;;;24.40;62.10;;;;;;222563;1260;24218;-48
2023/06/29 03:32:15;;;;;;;1.90;1.60;;;24.40;61.80;;;;;;222555;1266;22507;-48
2023/06/29 03:37:19;;;;;;;3.80;1.80;;;24.40;62.10;;;;;;222490;1253;22511;-49
2023/06/29 03:42:23;;;;;;;1.60;1.50;;;24.40;62.20;;;;;;222513;1261;24320;-52
2023/06/29 03:47:27;;;;;;;1.40;1.30;;;24.40;61.70;;;;;;222449;1260;22740;-48
2023/06/29 03:52:32;;;;;;;1.80;1.50;;;24.40;62.40;;;;;;222318;1260;24360;-48
2023/06/29 03:57:36;;;;;;;3.00;1.90;;;24.40;61.80;;;;;;222348;1268;25239;-50
2023/06/29 04:02:40;;;;;;;2.30;1.40;;;24.40;61.80;;;;;;222335;1261;24156;-49
2023/06/29 04:07:45;;;;;;;2.70;1.60;;;24.40;61.60;;;;;;222640;1268;24118;-48
2023/06/29 04:12:49;;;;;;;1.50;1.40;;;24.40;61.60;;;;;;222260;1268;22633;-47
2023/06/29 04:17:53;;;;;;;2.50;1.90;;;24.40;62.00;;;;;;222603;1256;24183;-48
2023/06/29 04:22:57;;;;;;;1.80;1.40;;;24.40;61.60;;;;;;222357;1268;22643;-48
2023/06/29 04:28:01;;;;;;;2.10;1.60;;;24.40;61.50;;;;;;222507;1268;24266;-47
2023/06/29 04:33:09;;;;;;;1.60;1.50;;;24.40;61.50;;;;;;222564;1268;24252;-49
2023/06/29 04:38:14;;;;;;;1.60;1.50;;;24.40;61.50;;;;;;222577;1264;25657;-50
2023/06/29 04:43:18;;;;;;;1.50;1.30;;;24.40;61.50;;;;;;222441;1261;24330;-46
2023/06/29 04:48:28;;;;;;;1.40;1.30;;;24.40;61.60;;;;;;222580;1263;23826;-50
2023/06/29 04:53:34;;;;;;;1.80;1.40;;;24.40;61.40;;;;;;222767;1264;24190;-48
2023/06/29 04:58:39;;;;;;;2.00;1.40;;;24.40;61.50;;;;;;222648;1263;25489;-50
2023/06/29 05:03:43;;;;;;;2.10;1.60;;;24.40;61.50;;;;;;222681;1251;24170;-48
2023/06/29 05:08:48;;;;;;;1.60;1.50;;;24.40;61.30;;;;;;222346;1254;24179;-49
2023/06/29 05:13:52;;;;;;;4.10;1.70;;;24.40;61.60;;;;;;222779;1254;22920;-49
2023/06/29 05:18:56;;;;;;;1.40;1.30;;;24.50;61.20;;;;;;222891;1260;22522;-50
2023/06/29 05:24:00;;;;;;;3.30;1.50;;;24.40;61.30;;;;;;222433;1260;24183;-51
2023/06/29 05:29:06;;;;;;;3.80;1.40;;;24.50;61.50;;;;;;222595;1268;25492;-47
2023/06/29 05:34:10;;;;;;;2.00;1.80;;;24.50;61.40;;;;;;222378;1264;22924;-48
2023/06/29 05:39:14;;;;;;;2.20;2.00;;;24.50;61.40;;;;;;222495;1268;24219;-51
2023/06/29 05:44:19;;;;;;;3.50;2.40;;;24.50;61.10;;;;;;222550;1266;22573;-49
2023/06/29 05:49:24;;;;;;;4.20;2.30;;;24.50;61.70;;;;;;222441;1263;22524;-48
2023/06/29 05:54:29;;;;;;;4.80;3.70;;;24.50;61.30;;;;;;222571;1260;24355;-45
2023/06/29 05:59:33;;;;;;;4.70;3.40;;;24.30;61.30;;;;;;222136;1268;25389;-45
2023/06/29 06:04:37;;;;;;;3.90;3.10;;;24.10;61.00;;;;;;226975;1267;22654;-47
2023/06/29 06:09:41;;;;;;;5.30;3.30;;;24.10;60.70;;;;;;222459;1259;23876;-44
2023/06/29 06:14:45;;;;;;;4.30;2.80;;;24.20;60.90;;;;;;222426;1266;24334;-46
2023/06/29 06:19:50;;;;;;;3.00;2.60;;;24.40;60.90;;;;;;222387;1268;22505;-44
2023/06/29 06:24:54;;;;;;;5.00;2.70;;;24.50;60.80;;;;;;222563;1266;25296;-45
2023/06/29 06:29:58;;;;;;;3.40;2.50;;;24.60;60.90;;;;;;222355;1268;23152;-46
2023/06/29 06:35:04;;;;;;;4.00;2.90;;;24.70;60.60;;;;;;222441;1260;22675;-47
2023/06/29 06:40:09;;;;;;;7.70;3.50;;;24.70;60.50;;;;;;222621;1261;22626;-47
2023/06/29 06:45:13;;;;;;;6.20;2.90;;;24.80;60.80;;;;;;222638;1260;24221;-47
2023/06/29 06:50:18;;;;;;;6.40;3.10;;;24.80;60.70;;;;;;222446;1260;22520;-48
2023/06/29 06:55:22;;;;;;;8.30;3.40;;;24.80;61.20;;;;;;222407;1260;25508;-48
2023/06/29 07:00:27;;;;;;;10.70;3.40;;;24.80;60.90;;;;;;222324;1267;23346;-47
2023/06/29 07:05:32;;;;;;;5.40;3.10;;;24.90;61.00;;;;;;222581;1266;25303;-46
2023/06/29 07:10:36;;;;;;;21.10;3.80;;;24.90;61.00;;;;;;222092;1263;23896;-45
2023/06/29 07:15:40;;;;;;;9.70;3.60;;;25.00;60.80;;;;;;223682;1267;22587;-43
2023/06/29 07:20:44;;;;;;;13.30;3.40;;;25.10;60.70;;;;;;228330;1266;22514;-46
2023/06/29 07:25:51;;;;;;;7.90;3.20;;;25.30;59.90;;;;;;222678;1260;22515;-47
2023/06/29 07:30:55;;;;;;;9.70;3.90;;;25.20;59.50;;;;;;222649;1263;22495;-46
2023/06/29 07:36:00;;;;;;;8.80;3.70;;;25.10;61.70;;;;;;222528;1249;24174;-47
2023/06/29 07:41:05;;;;;;;6.90;3.30;;;25.10;64.10;;;;;;222663;1264;23951;-46
2023/06/29 07:46:09;;;;;;;7.90;3.40;;;25.10;61.80;;;;;;222560;1269;24181;-45
2023/06/29 07:51:14;;;;;;;4.80;3.30;;;25.10;61.70;;;;;;222367;1260;22627;-46
2023/06/29 07:56:19;;;;;;;8.40;3.40;;;25.10;61.90;;;;;;222779;1268;25223;-46
2023/06/29 08:01:23;;;;;;;9.10;3.60;;;25.10;61.60;;;;;;222814;1254;22617;-50
2023/06/29 08:06:27;;;;;;;6.90;3.70;;;25.10;61.40;;;;;;222799;1265;22646;-49
2023/06/29 08:11:34;;;;;;;5.40;4.10;;;25.20;62.50;;;;;;222740;1269;22508;-45
2023/06/29 08:16:38;;;;;;;7.90;3.60;;;25.10;62.50;;;;;;222623;1261;22514;-45
2023/06/29 08:21:42;;;;;;;8.40;3.50;;;25.20;62.60;;;;;;222606;1253;25571;-46
2023/06/29 08:26:47;;;;;;;10.80;4.00;;;25.20;62.60;;;;;;222821;1265;24279;-49
2023/06/29 08:31:51;;;;;;;6.20;3.00;;;25.10;62.90;;;;;;222616;1268;22511;-47
2023/06/29 08:36:56;;;;;;;6.50;3.10;;;25.20;62.50;;;;;;222331;1268;24212;-47
2023/06/29 08:42:00;;;;;;;6.50;3.20;;;25.10;62.00;;;;;;222414;1256;22636;-47
2023/06/29 08:47:11;;;;;;;7.00;2.70;;;25.10;61.50;;;;;;222613;1266;25163;-47
2023/06/29 08:52:18;;;;;;;6.60;2.80;;;25.10;60.90;;;;;;222627;1268;22586;-45
2023/06/29 08:57:23;;;;;;;9.10;2.70;;;25.10;60.10;;;;;;222602;1257;24241;-46
2023/06/29 09:02:28;;;;;;;4.00;2.90;;;25.50;59.60;;;;;;222596;1256;22563;-49
2023/06/29 09:07:34;;;;;;;7.60;3.00;;;25.40;58.90;;;;;;222535;1264;24311;-49
2023/06/29 09:12:38;;;;;;;5.80;2.70;;;25.10;59.40;;;;;;222542;1261;25383;-46
2023/06/29 09:17:45;;;;;;;4.40;2.60;;;25.00;58.60;;;;;;222459;1268;24311;-47
2023/06/29 09:22:53;;;;;;;3.60;2.70;;;25.10;58.80;;;;;;222527;1266;24083;-47
2023/06/29 09:28:02;;;;;;;2.90;2.20;;;25.10;58.20;;;;;;222477;1268;25638;-50
2023/06/29 09:33:11;;;;;;;3.00;2.00;;;25.10;57.10;;;;;;222545;1263;24239;-50
2023/06/29 09:38:16;;;;;;;3.30;2.50;;;25.10;56.80;;;;;;222511;1260;22502;-48
2023/06/29 09:43:28;;;;;;;3.00;2.70;;;25.10;56.70;;;;;;222737;1251;24227;-48
2023/06/29 09:48:32;;;;;;;2.80;1.80;;;25.10;56.10;;;;;;223084;1264;22530;-51
2023/06/29 09:53:39;;;;;;;3.40;2.10;;;25.10;56.00;;;;;;222826;1267;24323;-48
2023/06/29 09:58:44;;;;;;;3.80;2.20;;;25.20;55.10;;;;;;222860;1266;25454;-48
2023/06/29 10:03:48;;;;;;;4.50;2.10;;;25.10;53.90;;;;;;222751;1263;24190;-52
2023/06/29 10:08:58;;;;;;;1.90;1.80;;;25.10;54.80;;;;;;223012;1263;25389;-47
2023/06/29 10:14:04;;;;;;;2.30;2.00;;;25.00;55.50;;;;;;222604;1245;24366;-46
2023/06/29 10:19:19;;;;;;;2.10;1.90;;;24.90;55.40;;;;;;222935;1264;22627;-46
2023/06/29 10:24:30;;;;;;;4.10;2.20;;;24.90;55.80;;;;;;222851;1246;24295;-49
2023/06/29 10:29:48;;;;;;;;;;;25.10;54.80;;;;;;222739;1267;22997;-46
2023/06/29 10:35:01;;;;;;;2.30;1.90;;;25.20;55.20;;;;;;222943;1266;22775;-46
2023/06/29 10:40:24;;;;;;;3.60;1.80;;;25.20;53.90;;;;;;222881;1266;23487;-48
2023/06/29 10:45:30;;;;;;;2.50;2.00;;;25.20;52.80;;;;;;222592;1268;22527;-47
2023/06/29 10:50:40;;;;;;;1.80;1.50;;;25.10;52.90;;;;;;222431;1268;25582;-50
2023/06/29 10:55:53;;;;;;;2.20;1.70;;;25.20;53.10;;;;;;222406;1268;25407;-46
2023/06/29 11:00:57;;;;;;;3.90;2.00;;;25.40;52.80;;;;;;222459;1267;23014;-48
2023/06/29 11:06:02;;;;;;;2.50;1.80;;;25.30;52.50;;;;;;222547;1253;24179;-48
2023/06/29 11:11:16;;;;;;;1.70;1.60;;;25.30;52.10;;;;;;222655;1263;24170;-47
2023/06/29 11:16:20;;;;;;;2.00;1.80;;;25.30;51.50;;;;;;222434;1261;25240;-48
2023/06/29 11:21:25;;;;;;;2.90;1.90;;;25.60;52.20;;;;;;222399;1268;25588;-47
2023/06/29 11:26:29;;;;;;;2.80;1.90;;;25.60;52.00;;;;;;222451;1266;25306;-47
2023/06/29 11:31:33;;;;;;;2.50;1.70;;;25.50;52.10;;;;;;222300;1266;24043;-49
2023/06/29 11:36:38;;;;;;;3.50;1.70;;;25.40;52.10;;;;;;222453;1268;25430;-52
2023/06/29 11:41:42;;;;;;;3.20;1.90;;;25.40;52.20;;;;;;222525;1269;24197;-47
2023/06/29 11:46:47;;;;;;;2.90;1.60;;;25.40;52.80;;;;;;222423;1269;22529;-47
2023/06/29 11:52:08;;;;;;;;;;;25.40;53.20;;;;;;222412;1264;22542;-46
2023/06/29 11:57:17;;;;;;;3.50;1.80;;;25.40;52.50;;;;;;222489;1264;24225;-49
2023/06/29 12:02:23;;;;;;;2.10;1.80;;;25.50;52.00;;;;;;222564;1268;24212;-48
2023/06/29 12:07:44;;;;;;;3.30;1.90;;;25.40;52.10;;;;;;222702;1267;24244;-51
2023/06/29 12:12:55;;;;;;;2.20;1.80;;;25.40;51.90;;;;;;222584;1261;24042;-47
2023/06/29 12:18:08;;;;;;;1.70;1.60;;;25.50;51.70;;;;;;222345;1269;22775;-47
2023/06/29 12:23:14;;;;;;;6.00;1.60;;;25.40;52.10;;;;;;222761;1264;22520;-50
2023/06/29 12:28:19;;;;;;;2.30;1.70;;;25.40;52.50;;;;;;222511;1264;24211;-50
2023/06/29 12:33:23;;;;;;;1.50;1.40;;;25.40;52.10;;;;;;222641;1261;25258;-47
2023/06/29 12:38:27;;;;;;;2.20;1.70;;;25.40;52.00;;;;;;222219;1261;25441;-48
2023/06/29 12:43:31;;;;;;;3.00;1.30;;;25.40;51.90;;;;;;222183;1256;22517;-48
2023/06/29 12:48:39;;;;;;;2.70;1.90;;;25.40;50.80;;;;;;222323;1264;24358;-48
2023/06/29 12:53:43;;;;;;;1.70;1.50;;;25.40;50.90;;;;;;222428;1260;26494;-48
2023/06/29 12:58:47;;;;;;;2.40;1.50;;;25.50;50.70;;;;;;222356;1268;22732;-49
2023/06/29 13:03:51;;;;;;;1.30;1.20;;;25.40;50.90;;;;;;222490;1267;24330;-50
2023/06/29 13:08:56;;;;;;;4.70;1.60;;;25.50;51.00;;;;;;222373;1250;22511;-47
2023/06/29 13:14:00;;;;;;;1.80;1.10;;;25.40;50.30;;;;;;222439;1266;22695;-48
2023/06/29 13:19:04;;;;;;;2.70;1.30;;;25.40;50.50;;;;;;222424;1267;24211;-48
2023/06/29 13:24:08;;;;;;;3.80;1.80;;;25.40;50.30;;;;;;222376;1253;25210;-48
2023/06/29 13:29:12;;;;;;;2.50;1.90;;;25.40;50.30;;;;;;222440;1254;22531;-48
2023/06/29 13:34:17;;;;;;;1.90;1.40;;;25.40;50.30;;;;;;222494;1254;22547;-53
2023/06/29 13:39:22;;;;;;;3.60;1.60;;;25.40;50.40;;;;;;222455;1254;22771;-50
2023/06/29 13:44:26;;;;;;;2.20;1.70;;;25.40;50.10;;;;;;222261;1258;22514;-48
2023/06/29 13:49:30;;;;;;;1.60;1.50;;;25.50;50.20;;;;;;222613;1257;22608;-49
2023/06/29 13:54:35;;;;;;;2.40;1.60;;;25.50;50.20;;;;;;222443;1264;24211;-48
2023/06/29 13:59:40;;;;;;;3.40;1.70;;;25.40;51.50;;;;;;222396;1263;24250;-50
2023/06/29 14:04:45;;;;;;;2.70;1.80;;;25.40;51.80;;;;;;222443;1264;22714;-47
2023/06/29 14:09:50;;;;;;;1.70;1.60;;;25.50;52.40;;;;;;222400;1254;25275;-48
2023/06/29 14:14:54;;;;;;;2.50;1.60;;;25.50;51.60;;;;;;222065;1267;253008;-48
2023/06/29 14:19:59;;;;;;;2.30;1.60;;;25.50;51.00;;;;;;222410;1254;23490;-48
2023/06/29 14:25:04;;;;;;;2.00;1.50;;;25.40;50.80;;;;;;222351;1268;25351;-48
2023/06/29 14:30:10;;;;;;;2.40;1.80;;;25.50;51.00;;;;;;222374;1260;22655;-48
2023/06/29 14:35:14;;;;;;;4.20;1.90;;;25.40;52.00;;;;;;222389;1264;22532;-50
2023/06/29 14:40:36;;;;;;;2.40;1.40;;;25.40;51.50;;;;;;222316;1264;24330;-47
2023/06/29 14:45:40;;;;;;;3.90;1.80;;;25.30;50.20;;;;;;222440;1268;23766;-48
2023/06/29 14:50:44;;;;;;;5.40;1.50;;;25.20;49.90;;;;;;222399;1268;25864;-49
2023/06/29 14:56:04;;;;;;;2.00;1.40;;;25.20;49.70;;;;;;222423;1258;22508;-49
2023/06/29 15:01:08;;;;;;;1.90;1.60;;;25.30;49.50;;;;;;222449;1254;25484;-50
2023/06/29 15:06:13;;;;;;;1.90;1.30;;;25.40;49.70;;;;;;222609;1264;23704;-51
2023/06/29 15:11:17;;;;;;;3.10;1.50;;;25.40;49.80;;;;;;222322;1253;22518;-50
2023/06/29 15:16:21;;;;;;;4.20;1.70;;;25.40;49.60;;;;;;222445;1267;22647;-49
2023/06/29 15:21:25;;;;;;;4.40;1.70;;;25.40;49.60;;;;;;222446;1264;25313;-47
2023/06/29 15:26:30;;;;;;;2.50;1.50;;;25.40;50.00;;;;;;222454;1266;23802;-49
2023/06/29 15:31:34;;;;;;;5.40;1.60;;;25.40;49.80;;;;;;222449;1266;25287;-49
2023/06/29 15:36:38;;;;;;;5.90;1.80;;;25.60;51.30;;;;;;222335;1246;24176;-51
2023/06/29 15:41:43;;;;;;;9.60;1.40;;;25.60;50.60;;;;;;222306;1254;24158;-48
2023/06/29 15:46:54;;;;;;;4.00;1.70;;;25.50;50.60;;;;;;222299;1257;22535;-51
2023/06/29 15:51:59;;;;;;;10.20;1.90;;;25.60;49.80;;;;;;222595;1253;23821;-50
2023/06/29 15:57:03;;;;;;;12.20;2.00;;;25.60;50.70;;;;;;222500;1254;22526;-50
2023/06/29 16:02:08;;;;;;;5.10;1.60;;;25.50;50.80;;;;;;222446;1263;22770;-50
2023/06/29 16:07:13;;;;;;;6.00;2.00;;;25.60;50.60;;;;;;222793;1263;23193;-47
2023/06/29 16:12:17;;;;;;;5.00;2.00;;;25.60;51.20;;;;;;222277;1263;22537;-52
2023/06/29 16:17:21;;;;;;;8.30;2.50;;;25.70;52.10;;;;;;222532;1260;24173;-53
2023/06/29 16:22:26;;;;;;;3.90;1.90;;;25.70;52.00;;;;;;222398;1253;22993;-53
2023/06/29 16:27:31;;;;;;;2.90;1.70;;;25.50;51.90;;;;;;222458;1264;22511;-54
2023/06/29 16:32:35;;;;;;;2.50;1.60;;;25.60;52.10;;;;;;222456;1260;27110;-54
2023/06/29 16:37:43;;;;;;;2.80;2.50;;;25.50;50.50;;;;;;222509;1260;22522;-55
2023/06/29 16:42:47;;;;;;;2.40;1.60;;;25.60;49.80;;;;;;222635;1260;22511;-54
2023/06/29 16:47:52;;;;;;;2.30;1.40;;;25.70;49.40;;;;;;222605;1256;22528;-53
2023/06/29 16:52:56;;;;;;;43.30;39.00;;;25.70;49.70;;;;;;222584;1254;25357;-57
2023/06/29 16:58:02;;;;;;;91.10;82.00;;;25.80;49.90;;;;;;222593;1260;22599;-53
2023/06/29 17:03:06;;;;;;;80.60;71.80;;;25.90;50.30;;;;;;222208;1260;23908;-54
2023/06/29 17:08:10;;;;;;;48.70;43.70;;;26.00;49.50;;;;;;222652;1245;24203;-53
2023/06/29 17:13:15;;;;;;;32.20;29.00;;;25.80;50.10;;;;;;222385;1260;22518;-52
2023/06/29 17:18:19;;;;;;;20.60;18.50;;;25.90;50.60;;;;;;222058;1259;22532;-53
2023/06/29 17:23:23;;;;;;;14.70;13.20;;;26.00;50.50;;;;;;222196;1264;24415;-54
2023/06/29 17:28:27;;;;;;;10.70;8.40;;;26.00;50.50;;;;;;222437;1260;22565;-55
2023/06/29 17:33:32;;;;;;;13.90;7.90;;;25.90;50.70;;;;;;222296;1244;23915;-55
2023/06/29 17:38:56;;;;;;;17.70;6.00;;;25.90;51.20;;;;;;221611;1263;23911;-53
2023/06/29 17:44:01;;;;;;;5.60;4.10;;;26.00;52.30;;;;;;221659;1260;22520;-53
2023/06/29 17:49:05;;;;;;;4.50;3.50;;;26.10;52.30;;;;;;222043;1263;26713;-53
2023/06/29 17:54:10;;;;;;;10.50;3.90;;;26.10;51.90;;;;;;221599;1263;22967;-54
2023/06/29 17:59:15;;;;;;;4.50;2.80;;;26.00;52.80;;;;;;221432;1250;25372;-54
2023/06/29 18:04:20;;;;;;;5.80;3.40;;;26.00;53.10;;;;;;221587;1263;25118;-54
2023/06/29 18:09:26;;;;;;;11.40;2.90;;;26.00;53.80;;;;;;221615;1260;22480;-54
2023/06/29 18:14:31;;;;;;;8.30;2.10;;;25.80;53.30;;;;;;221939;1256;23003;-57
2023/06/29 18:19:36;;;;;;;4.30;2.90;;;25.70;53.30;;;;;;222441;1260;25115;-48
2023/06/29 18:24:41;;;;;;;5.20;3.00;;;25.60;53.40;;;;;;222284;1254;22720;-51
2023/06/29 18:29:46;;;;;;;4.40;2.80;;;25.70;53.30;;;;;;222316;1263;24177;-53
2023/06/29 18:34:50;;;;;;;4.20;2.50;;;25.60;53.30;;;;;;222665;1263;22500;-49
2023/06/29 18:39:56;;;;;;;4.10;2.20;;;25.50;53.60;;;;;;222430;1257;24024;-51
2023/06/29 18:45:05;;;;;;;8.30;2.40;;;25.50;53.60;;;;;;222676;1263;22511;-53
2023/06/29 18:50:11;;;;;;;11.70;2.40;;;25.50;54.10;;;;;;222836;1260;25440;-51
2023/06/29 18:55:16;;;;;;;6.10;2.00;;;25.50;55.00;;;;;;222492;1260;22616;-55
2023/06/29 19:00:20;;;;;;;7.10;3.10;;;25.50;54.70;;;;;;222468;1257;22955;-54
2023/06/29 19:05:25;;;;;;;7.40;2.30;;;25.40;54.40;;;;;;224209;1260;22515;-52
2023/06/29 19:10:29;;;;;;;5.40;2.00;;;25.30;54.80;;;;;;222292;1258;22508;-53
2023/06/29 19:15:33;;;;;;;4.50;2.00;;;25.20;54.80;;;;;;222521;1260;22694;-54
2023/06/29 19:20:38;;;;;;;4.30;2.50;;;25.40;54.40;;;;;;222406;1261;24173;-52
2023/06/29 19:25:43;;;;;;;6.60;3.00;;;25.30;54.30;;;;;;222488;1263;24238;-52
2023/06/29 19:30:48;;;;;;;3.80;3.50;;;25.20;54.40;;;;;;222196;1260;22514;-54
2023/06/29 19:35:52;;;;;;;6.90;4.80;;;25.20;54.90;;;;;;222634;1260;22528;-53
2023/06/29 19:40:57;;;;;;;5.30;3.90;;;25.10;55.60;;;;;;221889;1265;22563;-54
2023/06/29 19:46:03;;;;;;;4.00;3.60;;;25.10;55.60;;;;;;221821;1269;23957;-52
2023/06/29 19:51:08;;;;;;;3.50;2.80;;;25.10;55.70;;;;;;221510;1264;25422;-57
2023/06/29 19:56:13;;;;;;;6.30;3.00;;;24.90;56.50;;;;;;221515;1264;22986;-55
2023/06/29 20:01:18;;;;;;;9.60;2.70;;;24.90;57.60;;;;;;221475;1266;22537;-52
2023/06/29 20:06:23;;;;;;;4.40;2.50;;;24.70;58.40;;;;;;221749;1271;24079;-48
2023/06/29 20:11:30;;;;;;;6.00;2.50;;;24.60;58.40;;;;;;221884;1263;22998;-50
2023/06/29 20:16:36;;;;;;;3.20;2.40;;;24.50;58.20;;;;;;222317;1263;24260;-45
2023/06/29 20:21:42;;;;;;;6.80;2.90;;;24.50;58.40;;;;;;222336;1256;24182;-47
2023/06/29 20:26:47;;;;;;;4.30;2.60;;;24.60;57.50;;;;;;222319;1266;22543;-50
2023/06/29 20:31:52;;;;;;;7.50;3.20;;;24.90;58.40;;;;;;222667;1256;24272;-52
2023/06/29 20:36:57;;;;;;;6.50;3.60;;;24.90;56.50;;;;;;222771;1263;23569;-50
2023/06/29 20:42:02;;;;;;;5.10;3.90;;;24.70;56.50;;;;;;222707;1263;24156;-50
2023/06/29 20:47:08;;;;;;;5.00;4.40;;;24.60;56.70;;;;;;222602;1261;22626;-50
2023/06/29 20:52:12;;;;;;;4.90;3.40;;;24.30;57.50;;;;;;222558;1260;25393;-49
2023/06/29 20:57:21;;;;;;;5.70;3.60;;;24.20;58.00;;;;;;222662;1265;25482;-48
2023/06/29 21:02:25;;;;;;;8.70;4.00;;;24.10;58.40;;;;;;222432;1260;25379;-48
2023/06/29 21:07:30;;;;;;;11.30;4.90;;;24.00;59.00;;;;;;222303;1261;22554;-50
2023/06/29 21:12:35;;;;;;;4.70;4.20;;;24.00;59.70;;;;;;222504;1260;24072;-52
2023/06/29 21:17:39;;;;;;;7.30;4.60;;;24.00;59.10;;;;;;222817;1254;22527;-48
2023/06/29 21:22:44;;;;;;;6.40;4.00;;;23.90;59.60;;;;;;222608;1260;23761;-49
2023/06/29 21:27:49;;;;;;;5.30;3.70;;;23.80;59.60;;;;;;222248;1254;22738;-47
2023/06/29 21:32:55;;;;;;;6.90;4.10;;;23.80;59.90;;;;;;222467;1266;22630;-48
2023/06/29 21:37:59;;;;;;;5.70;3.80;;;23.70;59.90;;;;;;222190;1254;22564;-48
2023/06/29 21:43:03;;;;;;;5.30;3.70;;;23.70;59.40;;;;;;222590;1267;25323;-49
2023/06/29 21:48:08;;;;;;;5.60;3.90;;;23.70;59.80;;;;;;221927;1266;22527;-49
2023/06/29 21:53:13;;;;;;;4.90;3.90;;;23.70;59.60;;;;;;222135;1260;24166;-47
2023/06/29 21:58:18;;;;;;;4.50;3.60;;;23.60;59.70;;;;;;223037;1259;24373;-46
2023/06/29 22:03:22;;;;;;;4.50;3.70;;;23.60;60.00;;;;;;222361;1255;22524;-47
2023/06/29 22:08:27;;;;;;;6.00;4.50;;;23.60;60.30;;;;;;222248;1248;24225;-47
2023/06/29 22:13:31;;;;;;;7.10;3.00;;;23.60;59.80;;;;;;222355;1261;22980;-48
2023/06/29 22:18:35;;;;;;;7.80;3.60;;;23.50;59.50;;;;;;222244;1264;24176;-48
2023/06/29 22:23:39;;;;;;;5.30;3.80;;;23.50;59.70;;;;;;222328;1263;25280;-50
2023/06/29 22:28:44;;;;;;;4.30;3.90;;;23.60;59.60;;;;;;222318;1256;22527;-45
2023/06/29 22:33:48;;;;;;;7.50;3.70;;;23.60;59.90;;;;;;222487;1260;22507;-48
2023/06/29 22:38:52;;;;;;;6.60;3.90;;;23.70;59.30;;;;;;222333;1256;24205;-48
2023/06/29 22:43:59;;;;;;;7.80;4.20;;;23.60;59.90;;;;;;222247;1266;23842;-51
2023/06/29 22:49:03;;;;;;;6.90;3.90;;;23.60;60.10;;;;;;222512;1260;23693;-50
2023/06/29 22:54:08;;;;;;;5.40;3.50;;;23.80;59.80;;;;;;222489;1260;22516;-49
2023/06/29 22:59:12;;;;;;;8.00;3.40;;;24.00;59.10;;;;;;222527;1257;24199;-50
2023/06/29 23:04:16;;;;;;;4.00;3.60;;;24.20;58.80;;;;;;222446;1261;24340;-53
2023/06/29 23:09:22;;;;;;;5.30;3.40;;;24.20;58.60;;;;;;222570;1268;25368;-49
2023/06/29 23:14:26;;;;;;;3.20;2.90;;;24.30;58.80;;;;;;222319;1260;22777;-48
2023/06/29 23:19:33;;;;;;;3.90;3.10;;;24.30;58.60;;;;;;222164;1263;23901;-46
2023/06/29 23:24:37;;;;;;;4.30;3.70;;;24.30;58.80;;;;;;227783;1247;24250;-51
2023/06/29 23:29:42;;;;;;;3.70;3.10;;;24.50;58.60;;;;;;230233;1266;22408;-49
2023/06/29 23:34:45;;;;;;;3.20;2.90;;;24.60;58.20;;;;;;224850;1261;22566;-49
2023/06/29 23:39:49;;;;;;;3.40;3.00;;;24.70;58.10;;;;;;222328;1268;22560;-50
2023/06/29 23:44:54;;;;;;;4.20;3.30;;;24.50;58.50;;;;;;222339;1264;22511;-49
2023/06/29 23:49:59;;;;;;;3.40;3.10;;;24.40;58.20;;;;;;222351;1266;22651;-49
2023/06/29 23:55:06;;;;;;;3.20;2.90;;;24.40;59.00;;;;;;222307;1264;22514;-49
